createdAt,value
2023-04-20T00:00:11.634Z,6.84
2023-04-20T00:02:33.327Z,6.69
2023-04-20T00:04:54.946Z,6.75
2023-04-20T00:07:16.803Z,6.73
2023-04-20T00:09:38.512Z,6.82
2023-04-20T00:11:59.956Z,6.76
2023-04-20T00:14:21.440Z,6.78
2023-04-20T00:16:43.016Z,6.84
2023-04-20T00:19:04.455Z,7.01
2023-04-20T00:21:26.199Z,6.80
2023-04-20T00:23:47.619Z,6.95
2023-04-20T00:26:09.092Z,6.91
2023-04-20T00:28:31.170Z,7.02
2023-04-20T00:30:52.661Z,6.97
2023-04-20T00:33:14.101Z,6.87
2023-04-20T00:35:35.637Z,6.86
2023-04-20T00:37:57.112Z,6.74
2023-04-20T00:40:18.845Z,6.80
2023-04-20T00:42:41.477Z,6.75
2023-04-20T00:45:03.828Z,6.64
2023-04-20T00:47:25.727Z,6.62
2023-04-20T00:49:47.811Z,6.50
2023-04-20T00:52:09.425Z,6.48
2023-04-20T00:54:31.963Z,6.45
2023-04-20T00:56:54.520Z,6.41
2023-04-20T00:59:16.705Z,6.41
2023-04-20T01:01:38.469Z,6.33
2023-04-20T01:04:00.130Z,6.41
2023-04-20T01:06:21.804Z,6.42
2023-04-20T01:08:48.482Z,6.47
2023-04-20T01:11:09.997Z,6.62
2023-04-20T01:13:31.491Z,6.50
2023-04-20T01:15:53.027Z,6.52
2023-04-20T01:18:15.370Z,6.37
2023-04-20T01:20:37.516Z,6.43
2023-04-20T01:22:59.030Z,6.55
2023-04-20T01:25:21.059Z,6.46
2023-04-20T01:27:43.025Z,6.50
2023-04-20T01:30:05.080Z,6.27
2023-04-20T01:32:26.590Z,6.34
2023-04-20T01:34:48.229Z,6.44
2023-04-20T01:37:09.732Z,6.41
2023-04-20T01:39:31.322Z,6.31
2023-04-20T01:41:52.814Z,6.40
2023-04-20T01:44:14.271Z,6.39
2023-04-20T01:46:39.919Z,6.41
2023-04-20T01:49:01.439Z,6.49
2023-04-20T01:51:22.906Z,6.35
2023-04-20T01:53:44.329Z,6.37
2023-04-20T01:56:06.036Z,6.50
2023-04-20T01:58:27.470Z,6.52
2023-04-20T02:00:49.179Z,6.42
2023-04-20T02:03:11.156Z,6.35
2023-04-20T02:05:32.775Z,6.31
2023-04-20T02:07:54.190Z,6.41
2023-04-20T02:10:15.755Z,6.38
2023-04-20T02:12:37.207Z,6.26
2023-04-20T02:14:58.668Z,6.27
2023-04-20T02:17:20.196Z,6.26
2023-04-20T02:19:41.745Z,6.21
2023-04-20T02:22:03.511Z,6.19
2023-04-20T02:24:25.040Z,6.24
2023-04-20T02:26:46.475Z,6.36
2023-04-20T02:29:07.958Z,6.23
2023-04-20T02:31:29.421Z,6.25
2023-04-20T02:33:51.502Z,6.14
2023-04-20T02:36:13.075Z,6.04
2023-04-20T02:38:34.526Z,6.01
2023-04-20T02:40:56.084Z,6.20
2023-04-20T02:43:17.491Z,6.18
2023-04-20T02:45:39.096Z,6.18
2023-04-20T02:48:00.808Z,6.16
2023-04-20T02:50:22.316Z,6.23
2023-04-20T02:52:43.761Z,6.30
2023-04-20T02:55:06.014Z,6.42
2023-04-20T02:57:27.514Z,6.54
2023-04-20T02:59:48.962Z,6.35
2023-04-20T03:02:10.572Z,6.25
2023-04-20T03:04:32.263Z,6.28
2023-04-20T03:06:53.800Z,6.29
2023-04-20T03:09:15.477Z,6.24
2023-04-20T03:11:37.148Z,6.25
2023-04-20T03:13:58.599Z,6.21
2023-04-20T03:16:20.105Z,6.40
2023-04-20T03:18:41.625Z,6.51
2023-04-20T03:21:03.119Z,6.60
2023-04-20T03:23:24.631Z,6.52
2023-04-20T03:25:46.454Z,6.47
2023-04-20T03:28:07.885Z,6.42
2023-04-20T03:30:29.433Z,6.29
2023-04-20T03:32:50.959Z,6.34
2023-04-20T03:35:12.433Z,6.27
2023-04-20T03:37:33.940Z,6.42
2023-04-20T03:39:55.489Z,6.41
2023-04-20T03:42:16.905Z,6.45
2023-04-20T03:44:38.385Z,6.66
2023-04-20T03:46:59.837Z,6.74
2023-04-20T03:49:25.481Z,6.69
2023-04-20T03:51:46.897Z,6.58
2023-04-20T03:54:08.389Z,6.63
2023-04-20T03:56:29.822Z,6.68
2023-04-20T03:58:51.267Z,6.69
2023-04-20T04:01:13.448Z,6.58
2023-04-20T04:03:36.320Z,6.65
2023-04-20T04:05:58.375Z,6.66
2023-04-20T04:08:19.824Z,6.57
2023-04-20T04:10:41.306Z,6.63
2023-04-20T04:13:02.720Z,6.58
2023-04-20T04:15:24.289Z,6.43
2023-04-20T04:17:46.165Z,6.45
2023-04-20T04:20:11.495Z,6.41
2023-04-20T04:22:32.923Z,6.45
2023-04-20T04:24:54.540Z,6.61
2023-04-20T04:27:16.268Z,6.66
2023-04-20T04:29:38.745Z,6.60
2023-04-20T04:32:00.564Z,6.69
2023-04-20T04:34:24.040Z,6.71
2023-04-20T04:36:46.036Z,6.55
2023-04-20T04:39:07.504Z,6.43
2023-04-20T04:41:28.924Z,6.57
2023-04-20T04:43:51.544Z,6.57
2023-04-20T04:46:14.524Z,6.52
2023-04-20T04:48:40.775Z,6.65
2023-04-20T04:51:02.741Z,6.74
2023-04-20T04:53:24.205Z,6.47
2023-04-20T04:55:46.536Z,6.49
2023-04-20T04:58:08.053Z,6.36
2023-04-20T05:00:29.588Z,6.34
2023-04-20T05:02:53.065Z,6.31
2023-04-20T05:05:14.916Z,6.37
2023-04-20T05:07:36.354Z,6.38
2023-04-20T05:09:57.865Z,6.57
2023-04-20T05:12:19.558Z,6.52
2023-04-20T05:14:41.029Z,6.67
2023-04-20T05:17:02.708Z,6.96
2023-04-20T05:19:24.215Z,6.84
2023-04-20T05:21:45.869Z,6.98
2023-04-20T05:24:07.415Z,6.71
2023-04-20T05:26:28.874Z,6.79
2023-04-20T05:28:51.250Z,6.83
2023-04-20T05:31:12.746Z,6.77
2023-04-20T05:33:34.318Z,6.71
2023-04-20T05:35:57.249Z,6.65
2023-04-20T05:38:18.702Z,6.70
2023-04-20T05:40:40.205Z,6.79
2023-04-20T05:43:01.737Z,6.84
2023-04-20T05:45:23.313Z,6.90
2023-04-20T05:47:53.590Z,6.78
2023-04-20T05:50:15.243Z,6.99
2023-04-20T05:52:36.785Z,7.29
2023-04-20T05:54:59.526Z,7.23
2023-04-20T05:57:21.882Z,7.26
2023-04-20T05:59:43.759Z,7.34
2023-04-20T06:02:06.131Z,7.45
2023-04-20T06:04:28.376Z,7.58
2023-04-20T06:06:51.113Z,7.65
2023-04-20T06:09:12.580Z,7.72
2023-04-20T06:11:34.534Z,7.71
2023-04-20T06:13:56.039Z,7.62
2023-04-20T06:16:17.489Z,7.46
2023-04-20T06:18:38.970Z,7.44
2023-04-20T06:21:01.747Z,7.38
2023-04-20T06:23:23.235Z,7.58
2023-04-20T06:25:44.670Z,7.44
2023-04-20T06:28:06.739Z,7.55
2023-04-20T06:30:28.304Z,7.96
2023-04-20T06:32:49.889Z,8.20
2023-04-20T06:35:11.476Z,8.41
2023-04-20T06:37:33.036Z,8.72
2023-04-20T06:39:57.682Z,8.66
2023-04-20T06:42:19.130Z,8.69
2023-04-20T06:44:41.173Z,8.66
2023-04-20T06:47:02.880Z,8.69
2023-04-20T06:49:24.443Z,8.74
2023-04-20T06:51:45.880Z,8.73
2023-04-20T06:54:07.546Z,8.95
2023-04-20T06:56:28.972Z,9.05
2023-04-20T06:58:50.461Z,9.29
2023-04-20T07:01:11.896Z,9.75
2023-04-20T07:03:33.918Z,10.07
2023-04-20T07:05:55.607Z,10.18
2023-04-20T07:08:17.141Z,10.14
2023-04-20T07:10:38.562Z,10.51
2023-04-20T07:13:00.007Z,10.47
2023-04-20T07:15:22.996Z,10.82
2023-04-20T07:17:44.539Z,11.15
2023-04-20T07:20:10.032Z,10.87
2023-04-20T07:22:32.567Z,10.84
2023-04-20T07:24:54.037Z,10.81
2023-04-20T07:27:15.746Z,10.88
2023-04-20T07:29:37.175Z,10.95
2023-04-20T07:31:58.632Z,10.99
2023-04-20T07:34:20.424Z,11.09
2023-04-20T07:36:42.071Z,11.50
2023-04-20T07:39:04.279Z,11.73
2023-04-20T07:41:25.809Z,12.14
2023-04-20T07:43:47.321Z,12.33
2023-04-20T07:46:08.822Z,12.41
2023-04-20T07:48:30.405Z,12.49
2023-04-20T07:50:51.826Z,12.93
2023-04-20T07:53:14.176Z,13.14
2023-04-20T07:55:35.954Z,13.05
2023-04-20T07:57:57.892Z,13.13
2023-04-20T08:00:19.918Z,13.02
2023-04-20T08:02:41.884Z,13.17
2023-04-20T08:05:04.036Z,12.98
2023-04-20T08:07:25.708Z,13.10
2023-04-20T08:09:47.122Z,13.15
2023-04-20T08:12:08.757Z,13.00
2023-04-20T08:14:30.246Z,13.13
2023-04-20T08:16:51.777Z,13.39
2023-04-20T08:21:40.888Z,13.00
2023-04-20T08:24:04.656Z,13.31
2023-04-20T08:26:27.514Z,13.04
2023-04-20T08:28:48.922Z,13.20
2023-04-20T08:31:10.979Z,13.28
2023-04-20T08:33:32.542Z,13.25
2023-04-20T08:35:53.991Z,13.08
2023-04-20T08:38:18.086Z,12.70
2023-04-20T08:40:42.360Z,12.27
2023-04-20T08:43:04.081Z,11.98
2023-04-20T08:45:26.613Z,12.07
2023-04-20T08:47:49.652Z,12.35
2023-04-20T08:50:11.231Z,12.73
2023-04-20T08:52:33.416Z,12.79
2023-04-20T08:54:57.587Z,13.22
2023-04-20T08:57:19.488Z,13.15
2023-04-20T08:59:41.027Z,13.16
2023-04-20T09:02:12.845Z,13.33
2023-04-20T09:04:34.682Z,13.23
2023-04-20T09:06:56.819Z,13.39
2023-04-20T09:09:19.843Z,13.57
2023-04-20T09:11:41.736Z,13.59
2023-04-20T09:14:10.165Z,13.47
2023-04-20T09:16:31.737Z,13.27
2023-04-20T09:18:57.203Z,13.48
2023-04-20T09:21:18.646Z,13.41
2023-04-20T09:23:40.781Z,13.28
2023-04-20T09:26:02.271Z,13.65
2023-04-20T09:28:23.688Z,13.69
2023-04-20T09:30:47.280Z,13.98
2023-04-20T09:33:10.941Z,13.91
2023-04-20T09:35:32.580Z,14.10
2023-04-20T09:37:54.438Z,14.20
2023-04-20T09:40:16.560Z,14.29
2023-04-20T09:42:39.560Z,13.89
2023-04-20T09:45:01.816Z,13.97
2023-04-20T09:47:25.966Z,13.75
2023-04-20T09:49:47.749Z,13.35
2023-04-20T09:52:09.271Z,13.63
2023-04-20T09:54:31.664Z,13.80
2023-04-20T09:56:54.374Z,13.99
2023-04-20T09:59:19.145Z,14.03
2023-04-20T10:01:41.001Z,13.99
2023-04-20T10:04:08.277Z,14.35
2023-04-20T10:06:33.138Z,14.60
2023-04-20T10:08:55.146Z,14.34
2023-04-20T10:11:49.059Z,14.02
2023-04-20T10:14:19.947Z,14.16
2023-04-20T10:16:42.038Z,14.30
2023-04-20T10:19:06.300Z,14.68
2023-04-20T10:21:32.401Z,14.81
2023-04-20T10:23:54.361Z,15.33
2023-04-20T10:26:16.648Z,15.58
2023-04-20T10:28:42.744Z,15.65
2023-04-20T10:31:04.314Z,15.82
2023-04-20T10:33:25.788Z,15.94
2023-04-20T10:35:54.926Z,15.53
2023-04-20T10:38:36.874Z,15.55
2023-04-20T10:41:09.225Z,16.12
2023-04-20T10:43:30.657Z,16.04
2023-04-20T10:45:52.381Z,16.08
2023-04-20T10:48:15.469Z,16.43
2023-04-20T10:50:39.070Z,16.57
2023-04-20T10:53:00.629Z,16.43
2023-04-20T10:55:24.860Z,16.28
2023-04-20T10:57:46.437Z,16.36
2023-04-20T11:00:34.071Z,16.41
2023-04-20T11:02:57.415Z,16.51
2023-04-20T11:05:20.365Z,16.47
2023-04-20T11:07:52.655Z,16.57
2023-04-20T11:10:14.091Z,16.45
2023-04-20T11:12:39.795Z,16.28
2023-04-20T11:15:03.130Z,16.00
2023-04-20T11:17:35.334Z,15.96
2023-04-20T11:20:10.438Z,16.15
2023-04-20T11:22:32.358Z,16.33
2023-04-20T11:25:05.546Z,16.41
2023-04-20T11:27:27.370Z,16.49
2023-04-20T11:29:57.891Z,16.98
2023-04-20T11:32:19.663Z,16.88
2023-04-20T11:34:41.325Z,16.51
2023-04-20T11:37:07.449Z,16.11
2023-04-20T11:39:32.510Z,15.66
2023-04-20T11:41:54.409Z,15.33
2023-04-20T11:44:16.064Z,14.96
2023-04-20T11:46:37.753Z,14.81
2023-04-20T11:51:29.436Z,14.34
2023-04-20T11:53:50.860Z,14.38
2023-04-20T11:56:12.342Z,14.36
2023-04-20T11:58:33.864Z,14.43
2023-04-20T12:00:55.327Z,14.47
2023-04-20T12:03:17.179Z,14.28
2023-04-20T12:05:38.829Z,14.27
2023-04-20T12:08:00.304Z,14.42
2023-04-20T12:10:21.943Z,14.21
2023-04-20T12:12:43.424Z,14.49
2023-04-20T12:15:05.444Z,14.64
2023-04-20T12:17:27.008Z,14.74
2023-04-20T12:19:48.531Z,14.68
2023-04-20T12:22:10.108Z,14.48
2023-04-20T12:24:31.528Z,14.38
2023-04-20T12:26:53.016Z,13.92
2023-04-20T12:29:14.698Z,13.56
2023-04-20T12:31:36.542Z,13.24
2023-04-20T12:33:58.030Z,12.96
2023-04-20T12:36:19.507Z,12.61
2023-04-20T12:38:41.041Z,12.74
2023-04-20T12:41:04.268Z,12.58
2023-04-20T12:43:25.804Z,12.08
2023-04-20T12:45:48.435Z,12.03
2023-04-20T12:48:09.963Z,11.85
2023-04-20T12:50:31.483Z,11.92
2023-04-20T12:52:55.483Z,11.86
2023-04-20T12:55:16.974Z,11.88
2023-04-20T12:57:38.438Z,11.74
2023-04-20T13:00:02.774Z,11.97
2023-04-20T13:02:24.554Z,12.27
2023-04-20T13:04:46.979Z,12.94
2023-04-20T13:07:08.765Z,13.17
2023-04-20T13:09:30.263Z,13.27
2023-04-20T13:11:51.686Z,13.57
2023-04-20T13:14:13.259Z,13.85
2023-04-20T13:16:34.822Z,14.21
2023-04-20T13:18:56.624Z,14.51
2023-04-20T13:21:18.083Z,14.40
2023-04-20T13:23:40.113Z,14.30
2023-04-20T13:26:01.815Z,14.44
2023-04-20T13:28:24.541Z,14.43
2023-04-20T13:30:46.042Z,14.19
2023-04-20T13:33:07.648Z,13.95
2023-04-20T13:35:29.500Z,13.59
2023-04-20T13:37:51.205Z,13.33
2023-04-20T13:40:12.915Z,13.17
2023-04-20T13:42:34.599Z,13.18
2023-04-20T13:44:56.181Z,13.00
2023-04-20T13:47:19.490Z,12.80
2023-04-20T13:49:41.064Z,12.50
2023-04-20T13:52:02.681Z,12.27
2023-04-20T13:54:24.126Z,11.93
2023-04-20T13:56:45.636Z,11.59
2023-04-20T13:59:07.229Z,11.47
2023-04-20T14:01:28.786Z,11.12
2023-04-20T14:03:52.208Z,11.14
2023-04-20T14:06:13.693Z,11.08
2023-04-20T14:08:35.153Z,10.95
2023-04-20T14:10:56.990Z,11.17
2023-04-20T14:13:18.575Z,11.21
2023-04-20T14:15:40.304Z,11.13
2023-04-20T14:18:01.851Z,11.12
2023-04-20T14:20:23.577Z,11.07
2023-04-20T14:22:45.039Z,10.80
2023-04-20T14:25:07.183Z,10.95
2023-04-20T14:27:28.649Z,10.91
2023-04-20T14:29:50.884Z,10.80
2023-04-20T14:32:12.820Z,10.66
2023-04-20T14:34:34.288Z,10.60
2023-04-20T14:36:55.771Z,10.62
2023-04-20T14:39:19.946Z,10.55
2023-04-20T14:41:41.398Z,10.68
2023-04-20T14:44:02.939Z,10.66
2023-04-20T14:46:24.533Z,10.53
2023-04-20T14:48:46.517Z,10.55
2023-04-20T14:51:07.985Z,10.59
2023-04-20T14:53:30.536Z,10.60
2023-04-20T14:55:52.991Z,10.67
2023-04-20T14:58:18.332Z,10.65
2023-04-20T15:00:39.834Z,10.67
2023-04-20T15:03:01.404Z,10.53
2023-04-20T15:05:25.043Z,10.42
2023-04-20T15:07:50.584Z,10.30
2023-04-20T15:10:12.592Z,10.40
2023-04-20T15:12:34.030Z,10.55
2023-04-20T15:14:55.500Z,10.56
2023-04-20T15:17:16.980Z,10.72
2023-04-20T15:19:40.462Z,10.55
2023-04-20T15:22:01.969Z,10.77
2023-04-20T15:24:23.420Z,10.67
2023-04-20T15:26:44.861Z,10.45
2023-04-20T15:29:06.469Z,10.46
2023-04-20T15:31:28.007Z,10.59
2023-04-20T15:33:49.718Z,10.55
2023-04-20T15:36:11.141Z,10.68
2023-04-20T15:38:32.658Z,10.55
2023-04-20T15:40:55.308Z,10.72
2023-04-20T15:43:16.891Z,10.68
2023-04-20T15:45:38.370Z,10.93
2023-04-20T15:48:01.044Z,11.10
2023-04-20T15:50:23.342Z,11.16
2023-04-20T15:52:45.648Z,10.86
2023-04-20T15:55:10.023Z,10.84
2023-04-20T15:57:31.520Z,11.07
2023-04-20T15:59:52.956Z,11.31
2023-04-20T16:02:14.524Z,11.23
2023-04-20T16:04:36.326Z,11.16
2023-04-20T16:06:57.884Z,11.23
2023-04-20T16:09:19.964Z,11.52
2023-04-20T16:11:42.760Z,11.40
2023-04-20T16:14:04.236Z,11.38
2023-04-20T16:16:25.881Z,11.30
2023-04-20T16:18:48.220Z,11.14
2023-04-20T16:21:09.808Z,11.18
2023-04-20T16:23:31.398Z,11.01
2023-04-20T16:25:52.890Z,10.89
2023-04-20T16:28:14.447Z,10.89
2023-04-20T16:30:38.735Z,11.07
2023-04-20T16:33:00.354Z,11.02
2023-04-20T16:35:22.036Z,11.03
2023-04-20T16:37:43.987Z,10.87
2023-04-20T16:40:06.131Z,10.88
2023-04-20T16:42:27.827Z,10.85
2023-04-20T16:44:49.333Z,10.71
2023-04-20T16:47:10.986Z,10.50
2023-04-20T16:49:32.715Z,10.37
2023-04-20T16:51:54.291Z,10.14
2023-04-20T16:54:16.125Z,10.17
2023-04-20T16:56:38.584Z,10.28
2023-04-20T16:59:00.142Z,10.22
2023-04-20T17:01:21.698Z,10.20
2023-04-20T17:03:43.332Z,9.99
2023-04-20T17:06:07.537Z,9.96
2023-04-20T17:08:29.028Z,9.99
2023-04-20T17:10:50.557Z,10.11
2023-04-20T17:13:12.043Z,10.07
2023-04-20T17:15:33.529Z,9.97
2023-04-20T17:17:55.073Z,9.80
2023-04-20T17:20:16.500Z,9.77
2023-04-20T17:22:38.109Z,9.85
2023-04-20T17:25:01.299Z,9.85
2023-04-20T17:27:23.173Z,9.80
2023-04-20T17:29:45.138Z,9.84
2023-04-20T17:32:06.775Z,9.77
2023-04-20T17:34:28.279Z,9.72
2023-04-20T17:36:49.801Z,9.62
2023-04-20T17:39:11.381Z,9.72
2023-04-20T17:41:34.816Z,9.67
2023-04-20T17:43:56.301Z,9.81
2023-04-20T17:46:17.902Z,9.66
2023-04-20T17:48:39.442Z,9.70
2023-04-20T17:51:00.969Z,9.53
2023-04-20T17:53:22.481Z,9.41
2023-04-20T17:55:43.948Z,9.53
2023-04-20T17:58:05.395Z,9.58
2023-04-20T18:00:27.080Z,9.43
2023-04-20T18:02:48.636Z,9.44
2023-04-20T18:05:10.462Z,9.56
2023-04-20T18:07:31.920Z,9.51
2023-04-20T18:09:53.420Z,9.38
2023-04-20T18:12:14.883Z,9.36
2023-04-20T18:14:39.759Z,9.32
2023-04-20T18:17:01.212Z,9.34
2023-04-20T18:19:22.848Z,9.42
2023-04-20T18:21:44.669Z,9.40
2023-04-20T18:24:07.077Z,9.42
2023-04-20T18:26:28.621Z,9.26
2023-04-20T18:28:50.161Z,9.43
2023-04-20T18:31:12.174Z,9.34
2023-04-20T18:33:33.689Z,9.40
2023-04-20T18:35:55.176Z,9.36
2023-04-20T18:38:16.665Z,9.42
2023-04-20T18:40:38.216Z,9.36
2023-04-20T18:42:59.714Z,9.34
2023-04-20T18:45:23.417Z,9.20
2023-04-20T18:47:44.925Z,9.16
2023-04-20T18:50:07.002Z,9.24
2023-04-20T18:52:32.473Z,9.22
2023-04-20T18:54:55.405Z,9.34
2023-04-20T18:57:17.214Z,9.25
2023-04-20T18:59:38.716Z,9.34
2023-04-20T19:02:00.374Z,9.28
2023-04-20T19:04:22.300Z,9.32
2023-04-20T19:06:44.002Z,9.26
2023-04-20T19:09:07.833Z,9.16
2023-04-20T19:11:32.806Z,9.23
2023-04-20T19:13:54.469Z,9.24
2023-04-20T19:16:15.996Z,9.14
2023-04-20T19:18:38.247Z,9.14
2023-04-20T19:20:59.670Z,9.22
2023-04-20T19:23:22.142Z,9.32
2023-04-20T19:25:44.023Z,9.49
2023-04-20T19:28:08.105Z,9.52
2023-04-20T19:30:29.702Z,9.55
2023-04-20T19:32:51.229Z,9.58
2023-04-20T19:35:12.733Z,9.56
2023-04-20T19:37:34.283Z,9.49
2023-04-20T19:39:55.813Z,9.42
2023-04-20T19:42:18.578Z,9.43
2023-04-20T19:44:40.030Z,9.53
2023-04-20T19:47:01.595Z,9.54
2023-04-20T19:49:23.040Z,9.39
2023-04-20T19:51:44.584Z,9.53
2023-04-20T19:54:06.099Z,9.64
2023-04-20T19:56:27.567Z,9.63
2023-04-20T19:58:49.031Z,9.49
2023-04-20T20:01:10.724Z,9.64
2023-04-20T20:03:32.314Z,9.68
2023-04-20T20:05:53.983Z,9.57
2023-04-20T20:08:16.540Z,9.69
2023-04-20T20:10:38.001Z,9.68
2023-04-20T20:13:00.995Z,9.72
2023-04-20T20:15:22.454Z,9.73
2023-04-20T20:17:45.298Z,9.93
2023-04-20T20:20:07.342Z,9.88
2023-04-20T20:22:28.906Z,10.07
2023-04-20T20:24:52.204Z,10.20
2023-04-20T20:27:13.636Z,10.07
2023-04-20T20:29:35.150Z,10.13
2023-04-20T20:31:56.647Z,10.04
2023-04-20T20:34:18.190Z,10.04
2023-04-20T20:36:42.525Z,10.05
2023-04-20T20:39:05.171Z,10.09
2023-04-20T20:41:26.880Z,10.09
2023-04-20T20:43:49.902Z,10.03
2023-04-20T20:46:11.408Z,10.01
2023-04-20T20:48:32.900Z,9.99
2023-04-20T20:50:54.349Z,10.02
2023-04-20T20:53:17.530Z,10.10
2023-04-20T20:55:38.965Z,10.10
2023-04-20T20:58:00.602Z,10.02
2023-04-20T21:00:22.151Z,10.04
2023-04-20T21:02:43.673Z,9.94
2023-04-20T21:05:05.918Z,10.01
2023-04-20T21:07:27.400Z,9.93
2023-04-20T21:09:48.936Z,9.90
2023-04-20T21:12:10.374Z,10.01
2023-04-20T21:14:32.001Z,10.00
2023-04-20T21:16:53.941Z,10.03
2023-04-20T21:19:15.501Z,10.00
2023-04-20T21:21:36.984Z,10.11
2023-04-20T21:23:59.086Z,10.10
2023-04-20T21:26:20.666Z,10.07
2023-04-20T21:28:42.408Z,9.98
2023-04-20T21:31:03.867Z,10.09
2023-04-20T21:33:25.480Z,10.17
2023-04-20T21:35:47.032Z,10.13
2023-04-20T21:38:08.489Z,10.25
2023-04-20T21:40:29.991Z,10.20
2023-04-20T21:42:51.433Z,10.18
2023-04-20T21:45:12.910Z,10.34
2023-04-20T21:47:34.383Z,10.32
2023-04-20T21:49:55.931Z,10.43
2023-04-20T21:52:17.422Z,10.21
2023-04-20T21:54:40.851Z,10.35
2023-04-20T21:57:02.530Z,10.31
2023-04-20T21:59:24.058Z,10.27
2023-04-20T22:01:45.560Z,10.46
2023-04-20T22:04:07.451Z,10.32
2023-04-20T22:06:29.091Z,10.14
2023-04-20T22:08:50.765Z,10.30
2023-04-20T22:11:12.215Z,10.30
2023-04-20T22:13:34.610Z,10.43
2023-04-20T22:15:56.274Z,10.33
2023-04-20T22:18:18.965Z,10.38
2023-04-20T22:20:40.412Z,10.29
2023-04-20T22:23:01.925Z,10.28
2023-04-20T22:25:26.688Z,10.19
2023-04-20T22:27:48.145Z,10.31
2023-04-20T22:30:10.284Z,10.21
2023-04-20T22:32:31.915Z,10.27
2023-04-20T22:34:53.556Z,10.28
2023-04-20T22:37:15.153Z,10.32
2023-04-20T22:39:36.623Z,10.28
2023-04-20T22:41:58.104Z,10.34
2023-04-20T22:44:19.576Z,10.39
2023-04-20T22:46:41.574Z,10.25
2023-04-20T22:49:04.204Z,10.36
2023-04-20T22:51:25.995Z,10.35
2023-04-20T22:53:47.475Z,10.39
2023-04-20T22:56:08.997Z,10.29
2023-04-20T22:58:30.736Z,10.40
2023-04-20T23:00:52.194Z,10.40
2023-04-20T23:03:13.853Z,10.20
2023-04-20T23:05:35.422Z,10.09
2023-04-20T23:07:56.964Z,10.17
2023-04-20T23:10:19.014Z,10.10
2023-04-20T23:12:40.507Z,10.19
2023-04-20T23:15:02.166Z,10.22
2023-04-20T23:17:23.744Z,10.19
2023-04-20T23:19:45.924Z,10.18
2023-04-20T23:22:10.249Z,10.32
2023-04-20T23:24:31.685Z,10.41
2023-04-20T23:26:53.166Z,10.46
2023-04-20T23:29:14.615Z,10.53
2023-04-20T23:31:36.058Z,10.46
2023-04-20T23:33:57.534Z,10.69
2023-04-20T23:36:19.009Z,10.80
2023-04-20T23:38:40.969Z,10.75
2023-04-20T23:41:08.136Z,10.69
2023-04-20T23:43:29.612Z,10.64
2023-04-20T23:45:51.362Z,10.50
2023-04-20T23:48:12.871Z,10.54
2023-04-20T23:50:36.967Z,10.74
2023-04-20T23:52:58.666Z,10.83
2023-04-20T23:55:20.176Z,10.86
2023-04-20T23:57:41.684Z,10.87
